createdAt,value
2019-05-06T00:01:16.151Z,12.23
2019-05-06T00:03:46.622Z,5.92
2019-05-06T00:06:17.059Z,7.97
2019-05-06T00:08:47.550Z,7.55
2019-05-06T00:11:17.960Z,4.03
2019-05-06T00:13:48.425Z,4.95
2019-05-06T00:16:18.881Z,8.53
2019-05-06T00:18:49.354Z,6.27
2019-05-06T00:21:19.782Z,7.77
2019-05-06T00:23:54.348Z,11.00
2019-05-06T00:26:34.605Z,11.30
2019-05-06T00:29:06.832Z,8.98
2019-05-06T00:31:38.078Z,8.00
2019-05-06T00:34:08.642Z,10.25
2019-05-06T00:36:38.981Z,8.05
2019-05-06T00:39:11.144Z,10.17
2019-05-06T00:41:43.369Z,6.42
2019-05-06T00:44:14.392Z,6.57
2019-05-06T00:46:44.772Z,5.73
2019-05-06T00:49:15.358Z,5.97
2019-05-06T00:51:45.753Z,5.77
2019-05-06T00:54:20.618Z,9.20
2019-05-06T00:56:51.027Z,9.67
2019-05-06T00:59:23.696Z,7.60
2019-05-06T01:01:53.972Z,7.27
2019-05-06T01:04:24.585Z,10.70
2019-05-06T01:06:54.997Z,7.03
2019-05-06T01:09:25.756Z,7.13
2019-05-06T01:11:57.833Z,7.00
2019-05-06T01:14:29.887Z,8.90
2019-05-06T01:17:00.299Z,6.67
2019-05-06T01:19:30.755Z,6.33
2019-05-06T01:22:01.378Z,6.90
2019-05-06T01:24:31.831Z,6.77
2019-05-06T01:27:03.996Z,6.10
2019-05-06T01:29:34.898Z,6.43
2019-05-06T01:32:06.181Z,7.10
2019-05-06T01:34:36.812Z,8.53
2019-05-06T01:37:07.254Z,6.07
2019-05-06T01:39:39.261Z,11.63
2019-05-06T01:42:20.127Z,5.47
2019-05-06T01:44:50.615Z,10.17
2019-05-06T01:47:21.047Z,10.50
2019-05-06T01:49:53.608Z,8.07
2019-05-06T01:52:24.162Z,8.03
2019-05-06T01:54:54.650Z,9.23
2019-05-06T01:57:25.082Z,8.30
2019-05-06T01:59:55.668Z,6.70
2019-05-06T02:02:26.102Z,8.83
2019-05-06T02:04:56.543Z,10.43
2019-05-06T02:07:26.971Z,8.37
2019-05-06T02:09:57.438Z,7.60
2019-05-06T02:12:27.838Z,6.83
2019-05-06T02:14:58.392Z,13.90
2019-05-06T02:17:28.915Z,7.10
2019-05-06T02:19:59.408Z,11.73
2019-05-06T02:22:31.410Z,5.60
2019-05-06T02:25:04.509Z,7.30
2019-05-06T02:27:35.073Z,6.93
2019-05-06T02:30:15.082Z,10.57
2019-05-06T02:32:55.437Z,7.57
2019-05-06T02:35:35.043Z,10.37
2019-05-06T02:38:07.042Z,8.30
2019-05-06T02:40:37.527Z,8.77
2019-05-06T02:43:07.952Z,8.43
2019-05-06T02:45:38.416Z,9.07
2019-05-06T02:48:13.443Z,8.73
2019-05-06T02:50:46.823Z,8.80
2019-05-06T02:53:18.793Z,6.77
2019-05-06T02:55:49.305Z,10.72
2019-05-06T02:58:19.806Z,11.50
2019-05-06T03:00:53.692Z,10.40
2019-05-06T03:03:23.224Z,9.63
2019-05-06T03:05:53.921Z,9.47
2019-05-06T03:08:24.346Z,8.07
2019-05-06T03:10:54.722Z,8.17
2019-05-06T03:13:25.134Z,8.60
2019-05-06T03:15:55.605Z,9.03
2019-05-06T03:18:26.021Z,8.00
2019-05-06T03:20:58.070Z,7.57
2019-05-06T03:23:30.054Z,10.90
2019-05-06T03:26:03.758Z,6.50
2019-05-06T03:28:33.478Z,8.17
2019-05-06T03:31:06.651Z,12.33
2019-05-06T03:33:56.390Z,9.45
2019-05-06T03:36:18.451Z,11.47
2019-05-06T03:38:43.165Z,7.90
2019-05-06T03:41:13.905Z,11.03
2019-05-06T03:43:44.565Z,11.00
2019-05-06T03:46:25.303Z,8.00
2019-05-06T03:48:57.291Z,8.47
2019-05-06T03:51:27.753Z,8.50
2019-05-06T03:54:03.281Z,8.83
2019-05-06T03:56:33.937Z,8.90
2019-05-06T03:59:05.196Z,8.83
2019-05-06T04:01:35.658Z,7.83
2019-05-06T04:04:06.207Z,7.97
2019-05-06T04:06:36.990Z,10.07
2019-05-06T04:09:07.399Z,6.00
2019-05-06T04:11:39.439Z,9.67
2019-05-06T04:14:13.690Z,8.73
2019-05-06T04:17:03.133Z,7.50
2019-05-06T04:19:34.022Z,9.37
2019-05-06T04:22:12.957Z,5.90
2019-05-06T04:24:48.106Z,7.47
2019-05-06T04:27:43.981Z,13.40
2019-05-06T04:30:14.612Z,7.70
2019-05-06T04:32:45.167Z,9.20
2019-05-06T04:35:16.566Z,7.67
2019-05-06T04:37:47.151Z,7.70
2019-05-06T04:40:17.861Z,8.28
2019-05-06T04:42:48.326Z,17.70
2019-05-06T04:45:18.755Z,10.68
2019-05-06T04:47:49.228Z,21.12
2019-05-06T05:52:03.439Z,8.00
2019-05-06T05:54:35.191Z,11.12
2019-05-06T05:57:05.546Z,13.80
2019-05-06T05:59:36.003Z,9.48
2019-05-06T06:02:06.433Z,9.90
2019-05-06T06:04:37.006Z,14.68
2019-05-06T06:07:07.431Z,7.40
2019-05-06T06:09:39.457Z,10.55
2019-05-06T06:12:11.938Z,6.58
2019-05-06T06:14:46.977Z,8.08
2019-05-06T06:17:33.373Z,10.48
2019-05-06T06:20:22.479Z,9.73
2019-05-06T06:22:53.398Z,7.83
2019-05-06T06:25:24.159Z,11.83
2019-05-06T06:27:54.920Z,6.37
2019-05-06T06:30:30.036Z,7.58
2019-05-06T06:33:02.520Z,8.98
2019-05-06T06:35:34.204Z,11.97
2019-05-06T06:38:18.201Z,7.67
2019-05-06T06:40:55.116Z,7.65
2019-05-06T06:43:24.817Z,10.03
2019-05-06T06:45:56.521Z,9.35
2019-05-06T06:48:28.011Z,7.87
2019-05-06T06:51:03.305Z,8.93
2019-05-06T06:53:32.946Z,6.72
2019-05-06T06:56:22.046Z,5.97
2019-05-06T06:59:12.775Z,8.00
2019-05-06T07:01:49.027Z,8.65
2019-05-06T07:04:24.198Z,7.25
2019-05-06T07:06:56.300Z,5.25
2019-05-06T07:09:29.645Z,6.05
2019-05-06T07:12:00.557Z,6.47
2019-05-06T07:14:32.664Z,5.50
2019-05-06T07:17:03.457Z,6.10
2019-05-06T07:19:35.484Z,6.20
2019-05-06T07:22:06.991Z,10.88
2019-05-06T07:24:38.113Z,5.50
2019-05-06T07:27:19.086Z,8.83
2019-05-06T07:29:52.076Z,6.05
2019-05-06T07:32:23.224Z,3.22
2019-05-06T07:34:53.786Z,5.30
2019-05-06T07:37:24.389Z,3.50
2019-05-06T07:39:54.926Z,4.55
2019-05-06T07:42:26.970Z,5.12
2019-05-06T07:45:15.367Z,9.50
2019-05-06T07:47:48.770Z,10.05
2019-05-06T07:50:22.270Z,10.18
2019-05-06T07:53:08.308Z,3.67
2019-05-06T07:55:42.215Z,7.33
2019-05-06T07:58:14.568Z,6.65
2019-05-06T08:00:46.063Z,2.90
2019-05-06T08:03:18.612Z,3.62
2019-05-06T08:05:55.819Z,7.17
2019-05-06T08:08:23.200Z,3.65
2019-05-06T08:10:55.481Z,4.35
2019-05-06T08:13:26.953Z,5.55
2019-05-06T08:15:59.379Z,5.95
2019-05-06T08:18:33.132Z,8.35
2019-05-06T08:21:06.826Z,4.65
2019-05-06T08:23:39.819Z,7.55
2019-05-06T08:26:15.622Z,7.67
2019-05-06T08:28:44.512Z,8.88
2019-05-06T08:31:16.746Z,3.37
2019-05-06T08:33:47.249Z,3.80
2019-05-06T08:36:22.451Z,3.15
2019-05-06T08:39:02.913Z,4.47
2019-05-06T08:41:33.486Z,6.85
2019-05-06T08:44:04.326Z,4.95
2019-05-06T08:46:35.599Z,4.53
2019-05-06T08:49:07.061Z,3.22
2019-05-06T08:51:54.970Z,8.35
2019-05-06T08:54:27.500Z,2.70
2019-05-06T08:56:58.848Z,3.10
2019-05-06T08:59:32.192Z,3.45
2019-05-06T09:02:03.688Z,9.20
2019-05-06T09:04:36.078Z,15.20
2019-05-06T09:07:06.546Z,3.25
2019-05-06T09:09:37.259Z,4.00
2019-05-06T09:12:08.185Z,3.87
2019-05-06T09:14:39.058Z,2.27
2019-05-06T09:17:11.923Z,4.55
2019-05-06T09:19:43.347Z,7.37
2019-05-06T09:22:15.370Z,3.33
2019-05-06T09:24:46.916Z,2.58
2019-05-06T09:27:19.287Z,4.15
2019-05-06T09:29:52.137Z,5.12
2019-05-06T09:32:27.469Z,4.20
2019-05-06T09:34:58.597Z,4.92
2019-05-06T09:37:29.447Z,3.47
2019-05-06T09:40:02.528Z,3.20
2019-05-06T09:42:32.824Z,6.12
2019-05-06T09:45:03.601Z,4.78
2019-05-06T09:47:38.759Z,3.22
2019-05-06T09:50:12.718Z,3.60
2019-05-06T09:52:43.414Z,7.42
2019-05-06T09:55:18.788Z,4.33
2019-05-06T09:57:59.752Z,2.37
2019-05-06T10:00:37.050Z,3.98
2019-05-06T10:03:14.143Z,7.00
2019-05-06T10:05:45.188Z,2.75
2019-05-06T10:08:15.608Z,4.17
2019-05-06T10:10:55.966Z,4.15
2019-05-06T10:13:18.211Z,2.30
2019-05-06T10:15:48.675Z,7.45
2019-05-06T10:18:19.815Z,4.62
2019-05-06T10:20:50.284Z,8.13
2019-05-06T10:23:22.332Z,5.87
2019-05-06T10:25:52.892Z,9.08
2019-05-06T10:28:40.894Z,9.25
2019-05-06T10:31:12.920Z,2.22
2019-05-06T10:34:03.061Z,12.58
2019-05-06T10:36:53.300Z,7.60
2019-05-06T10:39:27.124Z,14.18
2019-05-06T10:42:13.383Z,5.00
2019-05-06T10:45:04.774Z,6.97
2019-05-06T10:47:35.270Z,5.33
2019-05-06T10:50:06.226Z,7.30
2019-05-06T10:52:51.811Z,5.53
2019-05-06T10:55:25.176Z,4.12
2019-05-06T10:57:55.793Z,9.75
2019-05-06T11:00:26.330Z,6.15
2019-05-06T11:03:14.445Z,3.50
2019-05-06T11:05:43.143Z,4.05
2019-05-06T11:08:14.271Z,7.20
2019-05-06T11:10:45.752Z,14.33
2019-05-06T11:13:16.488Z,3.60
2019-05-06T11:15:46.977Z,5.92
2019-05-06T11:18:24.956Z,3.05
2019-05-06T11:20:58.405Z,6.22
2019-05-06T11:23:29.236Z,3.67
2019-05-06T11:25:59.657Z,8.08
2019-05-06T11:28:42.678Z,4.08
2019-05-06T11:31:18.812Z,3.72
2019-05-06T11:33:52.559Z,2.87
2019-05-06T11:36:24.665Z,6.28
2019-05-06T11:38:55.148Z,3.10
2019-05-06T11:41:25.678Z,3.12
2019-05-06T11:43:56.203Z,5.53
2019-05-06T11:46:26.899Z,4.97
2019-05-06T11:48:57.724Z,3.83
2019-05-06T11:51:32.760Z,6.45
2019-05-06T11:54:07.566Z,8.30
2019-05-06T11:56:47.945Z,5.60
2019-05-06T11:59:07.291Z,5.15
2019-05-06T12:01:43.302Z,2.20
2019-05-06T12:04:13.903Z,2.47
2019-05-06T12:06:44.460Z,7.50
2019-05-06T12:09:16.988Z,3.35
2019-05-06T12:11:49.210Z,2.52
2019-05-06T12:14:19.865Z,8.73
2019-05-06T12:16:52.104Z,3.77
2019-05-06T12:19:22.740Z,3.22
2019-05-06T12:21:53.407Z,10.50
2019-05-06T12:24:23.937Z,2.12
2019-05-06T12:26:55.313Z,2.22
2019-05-06T12:29:25.793Z,7.58
2019-05-06T12:32:09.768Z,8.75
2019-05-06T12:34:40.373Z,1.80
2019-05-06T12:37:12.994Z,4.78
2019-05-06T12:39:45.286Z,2.30
2019-05-06T12:42:23.328Z,4.25
2019-05-06T12:44:56.433Z,4.62
2019-05-06T12:47:42.524Z,4.85
2019-05-06T12:50:14.931Z,2.22
2019-05-06T12:52:45.387Z,3.75
2019-05-06T12:55:21.506Z,2.00
2019-05-06T12:57:48.866Z,2.10
2019-05-06T13:00:19.765Z,4.22
2019-05-06T13:02:52.879Z,4.20
2019-05-06T13:05:23.747Z,1.72
2019-05-06T13:07:54.197Z,3.50
2019-05-06T13:10:27.829Z,4.08
2019-05-06T13:13:01.510Z,5.72
2019-05-06T13:15:32.246Z,3.75
2019-05-06T13:18:07.116Z,2.00
2019-05-06T13:20:37.628Z,3.45
2019-05-06T13:23:20.100Z,1.95
2019-05-06T13:25:45.651Z,4.95
2019-05-06T13:28:17.802Z,3.50
2019-05-06T13:30:48.566Z,4.87
2019-05-06T13:33:21.175Z,3.35
2019-05-06T13:35:53.505Z,3.27
2019-05-06T13:38:31.943Z,3.02
2019-05-06T13:41:13.479Z,2.08
2019-05-06T13:44:07.453Z,3.55
2019-05-06T13:46:41.544Z,1.40
2019-05-06T13:49:22.980Z,3.95
2019-05-06T13:52:01.026Z,10.68
2019-05-06T13:54:44.554Z,5.67
2019-05-06T13:57:18.352Z,8.08
2019-05-06T13:59:49.155Z,5.20
2019-05-06T14:02:34.107Z,2.58
2019-05-06T14:05:05.746Z,2.35
2019-05-06T14:07:36.546Z,5.85
2019-05-06T14:10:07.891Z,3.35
2019-05-06T14:12:38.927Z,2.52
2019-05-06T14:15:09.664Z,4.90
2019-05-06T14:17:42.174Z,3.37
2019-05-06T14:20:13.929Z,4.03
2019-05-06T14:22:46.461Z,2.27
2019-05-06T14:25:18.789Z,2.40
2019-05-06T14:27:52.616Z,4.67
2019-05-06T14:30:39.967Z,5.97
2019-05-06T14:33:15.373Z,5.17
2019-05-06T14:35:45.686Z,7.70
2019-05-06T14:38:18.638Z,4.67
2019-05-06T14:41:04.365Z,5.28
2019-05-06T14:43:43.457Z,6.35
2019-05-06T14:46:18.112Z,6.17
2019-05-06T14:48:48.946Z,12.10
2019-05-06T14:51:19.593Z,2.70
2019-05-06T14:53:52.765Z,4.00
2019-05-06T14:56:32.083Z,3.72
2019-05-06T14:59:08.986Z,2.17
2019-05-06T15:01:40.103Z,6.47
2019-05-06T15:04:12.558Z,6.30
2019-05-06T15:06:43.069Z,6.05
2019-05-06T15:09:16.907Z,5.00
2019-05-06T15:11:50.428Z,3.45
2019-05-06T15:14:23.423Z,4.78
2019-05-06T15:16:56.110Z,5.70
2019-05-06T15:19:26.524Z,4.80
2019-05-06T15:21:56.974Z,5.78
2019-05-06T15:24:27.917Z,5.10
2019-05-06T15:27:02.723Z,4.78
2019-05-06T15:29:33.725Z,6.05
2019-05-06T15:32:13.020Z,4.30
2019-05-06T15:34:48.714Z,5.25
2019-05-06T15:37:20.801Z,5.80
2019-05-06T15:39:52.263Z,2.42
2019-05-06T15:42:22.797Z,2.77
2019-05-06T15:44:53.340Z,5.90
2019-05-06T15:47:23.673Z,6.97
2019-05-06T15:49:54.170Z,5.90
2019-05-06T15:52:24.580Z,8.58
2019-05-06T15:54:55.031Z,4.37
2019-05-06T15:57:25.367Z,5.00
2019-05-06T15:59:55.784Z,6.45
2019-05-06T16:02:26.113Z,4.28
2019-05-06T16:04:56.515Z,5.85
2019-05-06T16:07:26.844Z,7.00
2019-05-06T16:09:58.178Z,6.90
2019-05-06T16:12:28.545Z,2.72
2019-05-06T16:14:59.003Z,10.32
2019-05-06T16:17:29.469Z,3.22
2019-05-06T16:19:59.888Z,5.92
2019-05-06T16:22:30.288Z,5.80
2019-05-06T16:25:02.749Z,4.60
2019-05-06T16:27:33.112Z,7.17
2019-05-06T16:30:04.040Z,3.87
2019-05-06T16:32:34.477Z,7.15
2019-05-06T16:35:06.437Z,6.55
2019-05-06T16:37:36.793Z,9.88
2019-05-06T16:40:07.589Z,9.93
2019-05-06T16:42:37.893Z,5.50
2019-05-06T16:45:08.771Z,9.78
2019-05-06T16:47:39.493Z,11.75
2019-05-06T16:50:13.259Z,11.33
2019-05-06T16:52:45.414Z,10.23
2019-05-06T16:55:20.698Z,8.13
2019-05-06T16:58:02.426Z,7.17
2019-05-06T17:00:35.220Z,7.75
2019-05-06T17:03:19.242Z,5.35
2019-05-06T17:06:06.061Z,7.40
2019-05-06T17:08:36.801Z,3.62
2019-05-06T17:11:07.439Z,4.97
2019-05-06T17:13:38.035Z,6.37
2019-05-06T17:16:08.436Z,6.92
2019-05-06T17:18:38.829Z,5.40
2019-05-06T17:21:09.270Z,5.87
2019-05-06T17:23:39.585Z,7.78
2019-05-06T17:26:10.079Z,11.83
2019-05-06T17:28:43.640Z,8.40
2019-05-06T17:31:22.409Z,11.10
2019-05-06T17:34:03.270Z,10.63
2019-05-06T17:36:35.337Z,17.27
2019-05-06T17:39:10.350Z,27.93
2019-05-06T17:41:48.303Z,9.03
2019-05-06T17:44:13.221Z,8.68
2019-05-06T17:46:47.945Z,9.68
2019-05-06T17:49:28.931Z,11.88
2019-05-06T17:52:06.721Z,6.62
2019-05-06T17:54:37.101Z,12.60
2019-05-06T17:57:07.603Z,23.42
2019-05-06T17:59:38.055Z,24.15
2019-05-06T18:02:15.978Z,35.65
2019-05-06T18:04:46.687Z,12.37
2019-05-06T18:07:17.195Z,9.88
2019-05-06T18:09:47.550Z,11.68
2019-05-06T18:12:19.006Z,15.65
2019-05-06T18:14:49.491Z,31.35
2019-05-06T18:17:22.008Z,24.12
2019-05-06T18:19:52.509Z,8.13
2019-05-06T18:22:22.910Z,22.05
2019-05-06T18:24:53.320Z,24.82
2019-05-06T18:27:23.813Z,14.63
2019-05-06T18:29:54.239Z,14.65
2019-05-06T18:32:24.712Z,10.32
2019-05-06T18:34:55.159Z,21.80
2019-05-06T18:37:25.677Z,22.87
2019-05-06T18:39:56.086Z,26.00
2019-05-06T18:42:26.604Z,10.20
2019-05-06T18:44:57.037Z,15.48
2019-05-06T18:47:27.562Z,9.85
2019-05-06T18:49:57.895Z,23.73
2019-05-06T18:52:28.372Z,25.55
2019-05-06T18:54:58.772Z,11.28
2019-05-06T18:57:29.292Z,9.78
2019-05-06T18:59:59.535Z,8.93
2019-05-06T19:02:29.891Z,11.83
2019-05-06T19:05:04.867Z,18.70
2019-05-06T19:07:35.256Z,28.50
2019-05-06T19:10:12.841Z,28.70
2019-05-06T19:12:44.018Z,35.30
2019-05-06T19:15:14.573Z,35.48
2019-05-06T19:17:45.111Z,16.93
2019-05-06T19:20:15.524Z,23.45
2019-05-06T19:22:46.018Z,30.27
2019-05-06T19:25:17.146Z,36.35
2019-05-06T19:27:47.634Z,40.45
2019-05-06T19:30:18.336Z,39.55
2019-05-06T19:32:48.817Z,34.67
2019-05-06T19:35:19.235Z,30.60
2019-05-06T19:37:49.714Z,26.68
2019-05-06T19:40:20.026Z,26.42
2019-05-06T19:42:53.188Z,25.60
2019-05-06T19:45:22.724Z,23.25
2019-05-06T19:47:53.123Z,28.20
2019-05-06T19:50:25.912Z,12.10
2019-05-06T19:52:56.499Z,18.00
2019-05-06T19:55:26.920Z,12.78
2019-05-06T19:57:57.390Z,16.12
2019-05-06T20:00:28.033Z,23.35
2019-05-06T20:02:58.493Z,24.23
2019-05-06T20:05:30.493Z,17.57
2019-05-06T20:08:02.945Z,7.97
2019-05-06T20:10:37.879Z,9.58
2019-05-06T20:13:09.968Z,11.75
2019-05-06T20:15:42.607Z,6.15
2019-05-06T20:18:13.257Z,7.28
2019-05-06T20:20:43.613Z,8.80
2019-05-06T20:23:13.980Z,14.33
2019-05-06T20:25:44.897Z,13.25
2019-05-06T20:28:15.575Z,14.05
2019-05-06T20:30:46.027Z,19.20
2019-05-06T20:33:16.465Z,15.83
2019-05-06T20:35:46.897Z,22.02
2019-05-06T20:38:17.370Z,25.77
2019-05-06T20:40:47.786Z,17.40
2019-05-06T20:43:21.645Z,25.43
2019-05-06T20:45:52.198Z,15.30
2019-05-06T20:48:23.491Z,14.33
2019-05-06T20:50:54.133Z,9.65
2019-05-06T20:53:24.481Z,9.40
2019-05-06T20:55:54.783Z,9.13
2019-05-06T20:58:25.044Z,7.25
2019-05-06T21:00:55.295Z,10.03
2019-05-06T21:03:25.758Z,8.63
2019-05-06T21:05:56.078Z,9.18
2019-05-06T21:08:26.426Z,14.87
2019-05-06T21:10:56.887Z,6.20
2019-05-06T21:13:32.386Z,8.53
2019-05-06T21:16:02.226Z,10.95
2019-05-06T21:18:32.629Z,9.28
2019-05-06T21:21:02.939Z,10.80
2019-05-06T21:23:33.407Z,5.70
2019-05-06T21:26:03.728Z,6.58
2019-05-06T21:28:34.097Z,6.55
2019-05-06T21:31:04.395Z,11.57
2019-05-06T21:33:34.872Z,9.45
2019-05-06T21:36:05.276Z,5.33
2019-05-06T21:38:35.608Z,7.00
2019-05-06T21:41:05.922Z,5.87
2019-05-06T21:43:46.008Z,6.05
2019-05-06T21:46:08.270Z,10.78
2019-05-06T21:48:38.724Z,9.83
2019-05-06T21:51:09.036Z,14.95
2019-05-06T21:53:39.498Z,8.23
2019-05-06T21:56:09.800Z,9.83
2019-05-06T21:58:40.175Z,8.93
2019-05-06T22:01:10.560Z,7.10
2019-05-06T22:03:43.217Z,6.90
2019-05-06T22:06:13.146Z,6.53
2019-05-06T22:08:43.475Z,11.08
2019-05-06T22:11:13.869Z,9.13
2019-05-06T22:13:57.782Z,9.33
2019-05-06T22:16:16.367Z,8.08
2019-05-06T22:18:46.706Z,6.37
2019-05-06T22:21:22.494Z,9.05
2019-05-06T22:23:54.628Z,9.80
2019-05-06T22:26:24.923Z,18.30
2019-05-06T22:28:55.489Z,5.87
2019-05-06T22:31:26.291Z,5.53
2019-05-06T22:33:56.577Z,5.85
2019-05-06T22:36:26.884Z,8.45
2019-05-06T22:38:57.154Z,5.80
2019-05-06T22:41:28.330Z,6.80
2019-05-06T22:44:12.165Z,7.22
2019-05-06T22:46:32.803Z,6.72
2019-05-06T22:49:02.772Z,5.33
2019-05-06T22:51:33.032Z,4.67
2019-05-06T22:54:03.371Z,5.12
2019-05-06T22:56:33.581Z,11.20
2019-05-06T22:59:03.966Z,4.90
2019-05-06T23:01:54.215Z,9.48
2019-05-06T23:04:25.645Z,5.33
2019-05-06T23:06:55.875Z,6.80
2019-05-06T23:09:26.235Z,7.20
2019-05-06T23:11:56.540Z,6.55
2019-05-06T23:14:31.650Z,9.78
2019-05-06T23:16:59.845Z,7.58
2019-05-06T23:19:31.801Z,9.28
2019-05-06T23:22:04.204Z,6.37
2019-05-06T23:24:34.272Z,7.17
2019-05-06T23:27:04.606Z,10.60
2019-05-06T23:29:35.061Z,25.30
2019-05-06T23:32:05.612Z,20.30
2019-05-06T23:34:36.086Z,19.65
2019-05-06T23:37:09.496Z,17.82
2019-05-06T23:40:17.257Z,11.18
2019-05-06T23:43:23.453Z,12.07
2019-05-06T23:46:29.499Z,12.88
2019-05-06T23:49:35.846Z,11.80
2019-05-06T23:52:42.213Z,9.88
2019-05-06T23:55:48.472Z,9.08
2019-05-06T23:58:17.539Z,12.58
